sensor_id;sensor_type;location;lat;lon;timestamp;P1;durP1;ratioP1;P2;durP2;ratioP2
63342;SDS011;49465;57.664;39.686;2023-07-29T00:00:55;3.03;;;1.38;;
63342;SDS011;49465;57.664;39.686;2023-07-29T00:03:29;1.70;;;1.20;;
63342;SDS011;49465;57.664;39.686;2023-07-29T00:06:00;3.30;;;1.45;;
63342;SDS011;49465;57.664;39.686;2023-07-29T00:08:38;2.58;;;1.30;;
63342;SDS011;49465;57.664;39.686;2023-07-29T00:11:09;4.65;;;1.50;;
63342;SDS011;49465;57.664;39.686;2023-07-29T00:13:47;5.30;;;1.30;;
63342;SDS011;49465;57.664;39.686;2023-07-29T00:16:22;2.75;;;1.30;;
63342;SDS011;49465;57.664;39.686;2023-07-29T00:18:51;4.38;;;1.30;;
63342;SDS011;49465;57.664;39.686;2023-07-29T00:21:41;1.83;;;1.23;;
63342;SDS011;49465;57.664;39.686;2023-07-29T00:24:13;3.08;;;1.20;;
63342;SDS011;49465;57.664;39.686;2023-07-29T00:26:47;1.58;;;1.48;;
63342;SDS011;49465;57.664;39.686;2023-07-29T00:29:25;3.28;;;1.25;;
63342;SDS011;49465;57.664;39.686;2023-07-29T00:31:54;1.50;;;1.10;;
63342;SDS011;49465;57.664;39.686;2023-07-29T00:34:35;3.83;;;1.30;;
63342;SDS011;49465;57.664;39.686;2023-07-29T00:37:06;2.17;;;1.30;;
63342;SDS011;49465;57.664;39.686;2023-07-29T00:39:40;4.28;;;1.20;;
63342;SDS011;49465;57.664;39.686;2023-07-29T00:42:15;2.63;;;1.48;;
63342;SDS011;49465;57.664;39.686;2023-07-29T00:44:44;3.20;;;1.20;;
63342;SDS011;49465;57.664;39.686;2023-07-29T00:47:24;2.30;;;1.35;;
63342;SDS011;49465;57.664;39.686;2023-07-29T00:49:54;4.03;;;1.45;;
63342;SDS011;49465;57.664;39.686;2023-07-29T00:52:29;3.17;;;1.27;;
63342;SDS011;49465;57.664;39.686;2023-07-29T00:54:59;3.92;;;1.17;;
63342;SDS011;49465;57.664;39.686;2023-07-29T00:57:30;3.08;;;1.20;;
63342;SDS011;49465;57.664;39.686;2023-07-29T01:00:03;3.25;;;1.17;;
63342;SDS011;49465;57.664;39.686;2023-07-29T01:02:39;1.42;;;1.30;;
63342;SDS011;49465;57.664;39.686;2023-07-29T01:05:11;4.72;;;1.55;;
63342;SDS011;49465;57.664;39.686;2023-07-29T01:13:41;1.67;;;1.27;;
63342;SDS011;49465;57.664;39.686;2023-07-29T01:16:19;2.13;;;1.40;;
63342;SDS011;49465;57.664;39.686;2023-07-29T01:18:54;2.03;;;1.33;;
63342;SDS011;49465;57.664;39.686;2023-07-29T01:21:25;2.95;;;1.40;;
63342;SDS011;49465;57.664;39.686;2023-07-29T01:24:03;3.13;;;1.38;;
63342;SDS011;49465;57.664;39.686;2023-07-29T01:26:35;2.28;;;1.48;;
63342;SDS011;49465;57.664;39.686;2023-07-29T01:29:07;2.85;;;1.98;;
63342;SDS011;49465;57.664;39.686;2023-07-29T01:31:40;2.45;;;1.92;;
63342;SDS011;49465;57.664;39.686;2023-07-29T01:37:19;6.07;;;2.10;;
63342;SDS011;49465;57.664;39.686;2023-07-29T01:39:52;4.95;;;2.40;;
63342;SDS011;49465;57.664;39.686;2023-07-29T01:42:25;2.60;;;2.20;;
63342;SDS011;49465;57.664;39.686;2023-07-29T01:44:54;4.55;;;2.50;;
63342;SDS011;49465;57.664;39.686;2023-07-29T01:47:25;3.45;;;2.58;;
63342;SDS011;49465;57.664;39.686;2023-07-29T01:49:57;2.88;;;2.22;;
63342;SDS011;49465;57.664;39.686;2023-07-29T01:52:31;3.28;;;2.20;;
63342;SDS011;49465;57.664;39.686;2023-07-29T01:55:04;4.70;;;2.40;;
63342;SDS011;49465;57.664;39.686;2023-07-29T01:57:37;3.08;;;2.58;;
63342;SDS011;49465;57.664;39.686;2023-07-29T02:00:09;5.30;;;2.08;;
63342;SDS011;49465;57.664;39.686;2023-07-29T02:02:44;3.87;;;2.40;;
63342;SDS011;49465;57.664;39.686;2023-07-29T02:05:16;4.28;;;2.67;;
63342;SDS011;49465;57.664;39.686;2023-07-29T02:07:48;4.10;;;2.60;;
63342;SDS011;49465;57.664;39.686;2023-07-29T02:10:20;4.55;;;2.78;;
63342;SDS011;49465;57.664;39.686;2023-07-29T02:12:53;5.18;;;2.80;;
63342;SDS011;49465;57.664;39.686;2023-07-29T02:15:25;3.60;;;2.60;;
63342;SDS011;49465;57.664;39.686;2023-07-29T02:17:56;4.55;;;2.70;;
63342;SDS011;49465;57.664;39.686;2023-07-29T02:20:27;7.30;;;3.00;;
63342;SDS011;49465;57.664;39.686;2023-07-29T02:23:01;5.95;;;2.85;;
63342;SDS011;49465;57.664;39.686;2023-07-29T02:25:35;3.85;;;2.75;;
63342;SDS011;49465;57.664;39.686;2023-07-29T02:28:09;6.25;;;3.00;;
63342;SDS011;49465;57.664;39.686;2023-07-29T02:30:41;6.43;;;2.92;;
63342;SDS011;49465;57.664;39.686;2023-07-29T02:33:13;4.75;;;3.15;;
63342;SDS011;49465;57.664;39.686;2023-07-29T02:35:45;5.25;;;2.83;;
63342;SDS011;49465;57.664;39.686;2023-07-29T02:38:19;3.63;;;3.13;;
63342;SDS011;49465;57.664;39.686;2023-07-29T02:40:59;5.93;;;3.42;;
63342;SDS011;49465;57.664;39.686;2023-07-29T02:43:25;5.32;;;3.17;;
63342;SDS011;49465;57.664;39.686;2023-07-29T02:46:02;4.95;;;3.13;;
63342;SDS011;49465;57.664;39.686;2023-07-29T02:48:34;3.92;;;3.10;;
63342;SDS011;49465;57.664;39.686;2023-07-29T02:51:11;4.28;;;3.13;;
63342;SDS011;49465;57.664;39.686;2023-07-29T02:53:40;4.63;;;3.22;;
63342;SDS011;49465;57.664;39.686;2023-07-29T02:56:14;6.22;;;3.30;;
63342;SDS011;49465;57.664;39.686;2023-07-29T02:58:46;6.03;;;3.33;;
63342;SDS011;49465;57.664;39.686;2023-07-29T03:01:23;4.35;;;3.08;;
63342;SDS011;49465;57.664;39.686;2023-07-29T03:03:58;4.82;;;2.90;;
63342;SDS011;49465;57.664;39.686;2023-07-29T03:06:38;5.15;;;3.15;;
63342;SDS011;49465;57.664;39.686;2023-07-29T03:09:13;5.15;;;2.75;;
63342;SDS011;49465;57.664;39.686;2023-07-29T03:11:45;4.32;;;2.95;;
63342;SDS011;49465;57.664;39.686;2023-07-29T03:14:14;4.35;;;3.03;;
63342;SDS011;49465;57.664;39.686;2023-07-29T03:16:45;6.35;;;3.10;;
63342;SDS011;49465;57.664;39.686;2023-07-29T03:19:23;6.88;;;3.00;;
63342;SDS011;49465;57.664;39.686;2023-07-29T03:21:57;4.50;;;2.80;;
63342;SDS011;49465;57.664;39.686;2023-07-29T03:24:37;5.93;;;3.00;;
63342;SDS011;49465;57.664;39.686;2023-07-29T03:27:15;4.95;;;3.58;;
63342;SDS011;49465;57.664;39.686;2023-07-29T03:29:48;3.70;;;3.30;;
63342;SDS011;49465;57.664;39.686;2023-07-29T03:32:19;8.15;;;3.33;;
63342;SDS011;49465;57.664;39.686;2023-07-29T03:34:51;4.93;;;3.15;;
63342;SDS011;49465;57.664;39.686;2023-07-29T03:37:26;5.27;;;3.23;;
63342;SDS011;49465;57.664;39.686;2023-07-29T03:39:58;5.35;;;3.10;;
63342;SDS011;49465;57.664;39.686;2023-07-29T03:42:32;4.63;;;2.90;;
63342;SDS011;49465;57.664;39.686;2023-07-29T03:45:04;4.00;;;2.92;;
63342;SDS011;49465;57.664;39.686;2023-07-29T03:47:37;5.68;;;3.15;;
63342;SDS011;49465;57.664;39.686;2023-07-29T03:50:09;6.13;;;2.97;;
63342;SDS011;49465;57.664;39.686;2023-07-29T03:52:38;6.15;;;2.90;;
63342;SDS011;49465;57.664;39.686;2023-07-29T03:55:16;3.83;;;3.13;;
63342;SDS011;49465;57.664;39.686;2023-07-29T03:57:48;5.10;;;3.22;;
63342;SDS011;49465;57.664;39.686;2023-07-29T04:00:20;4.00;;;2.70;;
63342;SDS011;49465;57.664;39.686;2023-07-29T04:02:54;5.57;;;3.08;;
63342;SDS011;49465;57.664;39.686;2023-07-29T04:05:29;6.97;;;2.97;;
63342;SDS011;49465;57.664;39.686;2023-07-29T04:07:58;4.18;;;3.00;;
63342;SDS011;49465;57.664;39.686;2023-07-29T04:10:31;6.97;;;3.13;;
63342;SDS011;49465;57.664;39.686;2023-07-29T04:13:03;4.50;;;3.25;;
63342;SDS011;49465;57.664;39.686;2023-07-29T04:15:30;5.95;;;3.25;;
63342;SDS011;49465;57.664;39.686;2023-07-29T04:17:56;4.80;;;3.42;;
63342;SDS011;49465;57.664;39.686;2023-07-29T04:20:23;5.43;;;3.05;;
63342;SDS011;49465;57.664;39.686;2023-07-29T04:22:54;3.75;;;3.10;;
63342;SDS011;49465;57.664;39.686;2023-07-29T04:25:20;3.60;;;3.13;;
63342;SDS011;49465;57.664;39.686;2023-07-29T04:27:55;4.78;;;2.92;;
63342;SDS011;49465;57.664;39.686;2023-07-29T04:30:34;3.72;;;3.10;;
63342;SDS011;49465;57.664;39.686;2023-07-29T04:33:08;6.30;;;2.97;;
63342;SDS011;49465;57.664;39.686;2023-07-29T04:35:42;3.47;;;2.67;;
63342;SDS011;49465;57.664;39.686;2023-07-29T04:38:13;5.82;;;2.58;;
63342;SDS011;49465;57.664;39.686;2023-07-29T04:40:44;3.20;;;2.42;;
63342;SDS011;49465;57.664;39.686;2023-07-29T04:43:17;5.15;;;2.63;;
63342;SDS011;49465;57.664;39.686;2023-07-29T04:45:49;3.55;;;2.35;;
63342;SDS011;49465;57.664;39.686;2023-07-29T04:48:23;3.65;;;2.60;;
63342;SDS011;49465;57.664;39.686;2023-07-29T04:50:53;4.28;;;2.75;;
63342;SDS011;49465;57.664;39.686;2023-07-29T04:53:25;4.05;;;2.90;;
63342;SDS011;49465;57.664;39.686;2023-07-29T04:56:05;5.13;;;2.70;;
63342;SDS011;49465;57.664;39.686;2023-07-29T04:58:36;3.42;;;2.80;;
63342;SDS011;49465;57.664;39.686;2023-07-29T05:01:08;3.92;;;2.38;;
63342;SDS011;49465;57.664;39.686;2023-07-29T05:03:43;3.22;;;2.42;;
63342;SDS011;49465;57.664;39.686;2023-07-29T05:06:17;2.97;;;2.30;;
63342;SDS011;49465;57.664;39.686;2023-07-29T05:08:47;5.55;;;2.67;;
63342;SDS011;49465;57.664;39.686;2023-07-29T05:11:29;4.60;;;2.33;;
63342;SDS011;49465;57.664;39.686;2023-07-29T05:13:58;2.63;;;2.40;;
63342;SDS011;49465;57.664;39.686;2023-07-29T05:16:32;3.08;;;2.10;;
63342;SDS011;49465;57.664;39.686;2023-07-29T05:18:58;3.35;;;2.40;;
63342;SDS011;49465;57.664;39.686;2023-07-29T05:21:28;3.20;;;2.40;;
63342;SDS011;49465;57.664;39.686;2023-07-29T05:23:58;3.92;;;2.20;;
63342;SDS011;49465;57.664;39.686;2023-07-29T05:26:33;4.20;;;2.30;;
63342;SDS011;49465;57.664;39.686;2023-07-29T05:29:05;3.80;;;2.35;;
63342;SDS011;49465;57.664;39.686;2023-07-29T05:31:42;4.78;;;2.40;;
63342;SDS011;49465;57.664;39.686;2023-07-29T05:34:19;3.00;;;2.30;;
63342;SDS011;49465;57.664;39.686;2023-07-29T05:36:53;4.13;;;2.42;;
63342;SDS011;49465;57.664;39.686;2023-07-29T05:39:25;3.37;;;2.40;;
63342;SDS011;49465;57.664;39.686;2023-07-29T05:41:57;4.03;;;2.40;;
63342;SDS011;49465;57.664;39.686;2023-07-29T05:44:37;5.57;;;2.40;;
63342;SDS011;49465;57.664;39.686;2023-07-29T05:47:11;7.97;;;2.90;;
63342;SDS011;49465;57.664;39.686;2023-07-29T05:49:43;5.28;;;2.80;;
63342;SDS011;49465;57.664;39.686;2023-07-29T05:52:22;4.90;;;2.50;;
63342;SDS011;49465;57.664;39.686;2023-07-29T05:54:59;5.15;;;2.80;;
63342;SDS011;49465;57.664;39.686;2023-07-29T05:57:37;3.10;;;2.35;;
63342;SDS011;49465;57.664;39.686;2023-07-29T06:00:13;4.25;;;2.60;;
63342;SDS011;49465;57.664;39.686;2023-07-29T06:02:43;3.58;;;2.40;;
63342;SDS011;49465;57.664;39.686;2023-07-29T06:05:23;4.30;;;2.80;;
63342;SDS011;49465;57.664;39.686;2023-07-29T06:07:57;2.72;;;2.42;;
63342;SDS011;49465;57.664;39.686;2023-07-29T06:10:34;5.10;;;2.42;;
63342;SDS011;49465;57.664;39.686;2023-07-29T06:13:11;4.20;;;2.42;;
63342;SDS011;49465;57.664;39.686;2023-07-29T06:15:47;3.78;;;2.42;;
63342;SDS011;49465;57.664;39.686;2023-07-29T06:18:19;5.78;;;2.40;;
63342;SDS011;49465;57.664;39.686;2023-07-29T06:20:59;4.20;;;2.35;;
63342;SDS011;49465;57.664;39.686;2023-07-29T06:23:29;4.40;;;2.60;;
63342;SDS011;49465;57.664;39.686;2023-07-29T06:26:06;3.50;;;2.78;;
63342;SDS011;49465;57.664;39.686;2023-07-29T06:28:42;4.78;;;2.53;;
63342;SDS011;49465;57.664;39.686;2023-07-29T06:31:14;3.00;;;2.63;;
63342;SDS011;49465;57.664;39.686;2023-07-29T06:33:55;4.85;;;2.42;;
63342;SDS011;49465;57.664;39.686;2023-07-29T06:36:27;3.33;;;2.40;;
63342;SDS011;49465;57.664;39.686;2023-07-29T06:39:05;3.50;;;2.60;;
63342;SDS011;49465;57.664;39.686;2023-07-29T06:41:42;3.72;;;2.17;;
63342;SDS011;49465;57.664;39.686;2023-07-29T06:44:20;2.97;;;2.15;;
63342;SDS011;49465;57.664;39.686;2023-07-29T06:46:55;3.35;;;2.40;;
63342;SDS011;49465;57.664;39.686;2023-07-29T06:49:25;2.88;;;2.33;;
63342;SDS011;49465;57.664;39.686;2023-07-29T06:52:02;2.95;;;2.28;;
63342;SDS011;49465;57.664;39.686;2023-07-29T06:54:34;5.07;;;2.50;;
63342;SDS011;49465;57.664;39.686;2023-07-29T06:57:11;2.97;;;2.50;;
63342;SDS011;49465;57.664;39.686;2023-07-29T06:59:45;3.13;;;2.10;;
63342;SDS011;49465;57.664;39.686;2023-07-29T07:02:16;2.50;;;2.22;;
63342;SDS011;49465;57.664;39.686;2023-07-29T07:04:51;3.35;;;2.45;;
63342;SDS011;49465;57.664;39.686;2023-07-29T07:07:25;3.53;;;2.20;;
63342;SDS011;49465;57.664;39.686;2023-07-29T07:10:03;3.25;;;1.90;;
63342;SDS011;49465;57.664;39.686;2023-07-29T07:12:40;5.05;;;1.92;;
63342;SDS011;49465;57.664;39.686;2023-07-29T07:15:16;2.00;;;1.75;;
63342;SDS011;49465;57.664;39.686;2023-07-29T07:17:51;2.92;;;2.03;;
63342;SDS011;49465;57.664;39.686;2023-07-29T07:20:23;3.35;;;1.90;;
63342;SDS011;49465;57.664;39.686;2023-07-29T07:23:05;2.80;;;1.60;;
63342;SDS011;49465;57.664;39.686;2023-07-29T07:25:35;3.33;;;2.00;;
63342;SDS011;49465;57.664;39.686;2023-07-29T07:28:12;4.35;;;1.80;;
63342;SDS011;49465;57.664;39.686;2023-07-29T07:30:42;2.35;;;1.80;;
63342;SDS011;49465;57.664;39.686;2023-07-29T07:33:11;4.45;;;2.00;;
63342;SDS011;49465;57.664;39.686;2023-07-29T07:35:37;2.42;;;1.75;;
63342;SDS011;49465;57.664;39.686;2023-07-29T07:38:04;2.13;;;1.75;;
63342;SDS011;49465;57.664;39.686;2023-07-29T07:40:41;2.60;;;1.73;;
63342;SDS011;49465;57.664;39.686;2023-07-29T07:43:07;3.03;;;1.80;;
63342;SDS011;49465;57.664;39.686;2023-07-29T07:45:39;1.73;;;1.40;;
63342;SDS011;49465;57.664;39.686;2023-07-29T07:48:05;2.47;;;1.67;;
63342;SDS011;49465;57.664;39.686;2023-07-29T07:50:36;3.92;;;1.73;;
63342;SDS011;49465;57.664;39.686;2023-07-29T07:53:08;2.42;;;1.65;;
63342;SDS011;49465;57.664;39.686;2023-07-29T07:55:38;2.63;;;1.67;;
63342;SDS011;49465;57.664;39.686;2023-07-29T07:58:06;1.77;;;1.50;;
63342;SDS011;49465;57.664;39.686;2023-07-29T08:00:40;3.15;;;2.08;;
63342;SDS011;49465;57.664;39.686;2023-07-29T08:03:10;4.35;;;2.90;;
63342;SDS011;49465;57.664;39.686;2023-07-29T08:05:39;3.40;;;2.63;;
63342;SDS011;49465;57.664;39.686;2023-07-29T08:08:07;4.65;;;2.00;;
63342;SDS011;49465;57.664;39.686;2023-07-29T08:10:34;3.55;;;1.90;;
63342;SDS011;49465;57.664;39.686;2023-07-29T08:13:05;2.35;;;1.60;;
63342;SDS011;49465;57.664;39.686;2023-07-29T08:15:32;2.53;;;1.70;;
63342;SDS011;49465;57.664;39.686;2023-07-29T08:17:58;3.22;;;1.70;;
63342;SDS011;49465;57.664;39.686;2023-07-29T08:20:27;3.05;;;1.63;;
63342;SDS011;49465;57.664;39.686;2023-07-29T08:22:56;4.13;;;1.55;;
63342;SDS011;49465;57.664;39.686;2023-07-29T08:25:22;1.67;;;1.45;;
63342;SDS011;49465;57.664;39.686;2023-07-29T08:27:49;2.03;;;1.58;;
63342;SDS011;49465;57.664;39.686;2023-07-29T08:30:15;3.13;;;1.58;;
63342;SDS011;49465;57.664;39.686;2023-07-29T08:32:46;2.58;;;1.50;;
63342;SDS011;49465;57.664;39.686;2023-07-29T08:35:22;2.17;;;1.45;;
63342;SDS011;49465;57.664;39.686;2023-07-29T08:37:48;1.52;;;1.40;;
63342;SDS011;49465;57.664;39.686;2023-07-29T08:40:18;1.55;;;1.42;;
63342;SDS011;49465;57.664;39.686;2023-07-29T08:42:52;2.00;;;1.40;;
63342;SDS011;49465;57.664;39.686;2023-07-29T08:45:22;2.00;;;1.40;;
63342;SDS011;49465;57.664;39.686;2023-07-29T08:47:52;1.67;;;1.23;;
63342;SDS011;49465;57.664;39.686;2023-07-29T08:50:24;3.58;;;1.45;;
63342;SDS011;49465;57.664;39.686;2023-07-29T08:52:51;2.13;;;1.48;;
63342;SDS011;49465;57.664;39.686;2023-07-29T08:55:21;1.40;;;1.30;;
63342;SDS011;49465;57.664;39.686;2023-07-29T08:57:50;2.08;;;1.40;;
63342;SDS011;49465;57.664;39.686;2023-07-29T09:00:24;3.55;;;1.48;;
63342;SDS011;49465;57.664;39.686;2023-07-29T09:02:54;3.15;;;1.40;;
63342;SDS011;49465;57.664;39.686;2023-07-29T09:05:22;3.00;;;1.30;;
63342;SDS011;49465;57.664;39.686;2023-07-29T09:07:52;3.30;;;1.50;;
63342;SDS011;49465;57.664;39.686;2023-07-29T09:10:26;2.42;;;1.60;;
63342;SDS011;49465;57.664;39.686;2023-07-29T09:12:52;2.35;;;1.40;;
63342;SDS011;49465;57.664;39.686;2023-07-29T09:15:28;1.52;;;1.20;;
63342;SDS011;49465;57.664;39.686;2023-07-29T09:17:56;2.20;;;1.58;;
63342;SDS011;49465;57.664;39.686;2023-07-29T09:20:28;1.77;;;1.55;;
63342;SDS011;49465;57.664;39.686;2023-07-29T09:22:55;1.45;;;1.27;;
63342;SDS011;49465;57.664;39.686;2023-07-29T09:25:30;3.85;;;1.38;;
63342;SDS011;49465;57.664;39.686;2023-07-29T09:27:59;1.65;;;1.50;;
63342;SDS011;49465;57.664;39.686;2023-07-29T09:30:39;1.30;;;1.20;;
63342;SDS011;49465;57.664;39.686;2023-07-29T09:33:08;3.05;;;1.20;;
63342;SDS011;49465;57.664;39.686;2023-07-29T09:35:37;1.40;;;1.30;;
63342;SDS011;49465;57.664;39.686;2023-07-29T09:38:04;1.40;;;1.30;;
63342;SDS011;49465;57.664;39.686;2023-07-29T09:40:38;1.40;;;1.20;;
63342;SDS011;49465;57.664;39.686;2023-07-29T09:43:13;2.35;;;1.13;;
63342;SDS011;49465;57.664;39.686;2023-07-29T09:45:52;1.33;;;1.23;;
63342;SDS011;49465;57.664;39.686;2023-07-29T09:48:19;2.17;;;1.00;;
63342;SDS011;49465;57.664;39.686;2023-07-29T09:50:56;1.25;;;1.10;;
63342;SDS011;49465;57.664;39.686;2023-07-29T09:53:25;1.35;;;1.25;;
63342;SDS011;49465;57.664;39.686;2023-07-29T09:56:00;1.55;;;1.38;;
63342;SDS011;49465;57.664;39.686;2023-07-29T09:58:30;1.63;;;1.30;;
63342;SDS011;49465;57.664;39.686;2023-07-29T10:01:00;2.22;;;1.40;;
63342;SDS011;49465;57.664;39.686;2023-07-29T10:03:29;2.00;;;1.20;;
63342;SDS011;49465;57.664;39.686;2023-07-29T10:06:02;2.88;;;1.17;;
63342;SDS011;49465;57.664;39.686;2023-07-29T10:08:34;1.88;;;1.00;;
63342;SDS011;49465;57.664;39.686;2023-07-29T10:11:10;2.25;;;1.10;;
63342;SDS011;49465;57.664;39.686;2023-07-29T10:13:38;2.67;;;1.20;;
63342;SDS011;49465;57.664;39.686;2023-07-29T10:16:10;1.17;;;1.08;;
63342;SDS011;49465;57.664;39.686;2023-07-29T10:18:42;1.55;;;0.80;;
63342;SDS011;49465;57.664;39.686;2023-07-29T10:21:08;1.88;;;1.00;;
63342;SDS011;49465;57.664;39.686;2023-07-29T10:23:42;1.40;;;1.10;;
63342;SDS011;49465;57.664;39.686;2023-07-29T10:26:14;0.93;;;0.93;;
63342;SDS011;49465;57.664;39.686;2023-07-29T10:28:49;2.83;;;1.03;;
63342;SDS011;49465;57.664;39.686;2023-07-29T10:31:23;1.08;;;0.95;;
63342;SDS011;49465;57.664;39.686;2023-07-29T10:33:56;2.88;;;1.10;;
63342;SDS011;49465;57.664;39.686;2023-07-29T10:36:30;2.30;;;0.93;;
63342;SDS011;49465;57.664;39.686;2023-07-29T10:39:06;1.52;;;0.93;;
63342;SDS011;49465;57.664;39.686;2023-07-29T10:47:15;1.08;;;0.93;;
63342;SDS011;49465;57.664;39.686;2023-07-29T10:49:46;2.17;;;1.00;;
63342;SDS011;49465;57.664;39.686;2023-07-29T10:52:15;1.00;;;0.88;;
63342;SDS011;49465;57.664;39.686;2023-07-29T10:54:48;1.00;;;0.90;;
63342;SDS011;49465;57.664;39.686;2023-07-29T10:57:33;1.13;;;1.00;;
63342;SDS011;49465;57.664;39.686;2023-07-29T11:00:09;1.05;;;0.95;;
63342;SDS011;49465;57.664;39.686;2023-07-29T11:02:44;1.98;;;1.00;;
63342;SDS011;49465;57.664;39.686;2023-07-29T11:08:23;1.00;;;0.90;;
63342;SDS011;49465;57.664;39.686;2023-07-29T11:11:06;0.75;;;0.75;;
63342;SDS011;49465;57.664;39.686;2023-07-29T11:13:36;1.48;;;1.10;;
63342;SDS011;49465;57.664;39.686;2023-07-29T11:16:05;2.63;;;1.17;;
63342;SDS011;49465;57.664;39.686;2023-07-29T11:18:38;1.60;;;1.23;;
63342;SDS011;49465;57.664;39.686;2023-07-29T11:21:06;1.60;;;1.10;;
63342;SDS011;49465;57.664;39.686;2023-07-29T11:23:35;1.60;;;1.10;;
63342;SDS011;49465;57.664;39.686;2023-07-29T11:26:02;1.17;;;1.08;;
63342;SDS011;49465;57.664;39.686;2023-07-29T11:28:29;1.20;;;1.05;;
63342;SDS011;49465;57.664;39.686;2023-07-29T11:31:02;1.20;;;1.10;;
63342;SDS011;49465;57.664;39.686;2023-07-29T11:33:31;1.65;;;1.00;;
63342;SDS011;49465;57.664;39.686;2023-07-29T11:35:58;1.40;;;0.98;;
63342;SDS011;49465;57.664;39.686;2023-07-29T11:38:24;2.30;;;1.10;;
63342;SDS011;49465;57.664;39.686;2023-07-29T11:40:54;1.30;;;1.02;;
63342;SDS011;49465;57.664;39.686;2023-07-29T11:43:28;1.38;;;1.10;;
63342;SDS011;49465;57.664;39.686;2023-07-29T11:45:54;0.82;;;0.82;;
63342;SDS011;49465;57.664;39.686;2023-07-29T11:48:27;1.42;;;1.10;;
63342;SDS011;49465;57.664;39.686;2023-07-29T11:50:59;2.17;;;1.13;;
63342;SDS011;49465;57.664;39.686;2023-07-29T11:53:28;1.45;;;1.00;;
63342;SDS011;49465;57.664;39.686;2023-07-29T11:55:58;1.42;;;1.10;;
63342;SDS011;49465;57.664;39.686;2023-07-29T11:58:27;1.10;;;1.00;;
63342;SDS011;49465;57.664;39.686;2023-07-29T12:00:59;2.78;;;1.20;;
63342;SDS011;49465;57.664;39.686;2023-07-29T12:03:29;1.35;;;1.20;;
63342;SDS011;49465;57.664;39.686;2023-07-29T12:05:58;1.10;;;1.00;;
63342;SDS011;49465;57.664;39.686;2023-07-29T12:08:25;3.00;;;1.08;;
63342;SDS011;49465;57.664;39.686;2023-07-29T12:10:52;1.15;;;1.05;;
63342;SDS011;49465;57.664;39.686;2023-07-29T12:13:23;1.98;;;1.00;;
63342;SDS011;49465;57.664;39.686;2023-07-29T12:15:52;2.25;;;1.20;;
63342;SDS011;49465;57.664;39.686;2023-07-29T12:18:36;1.60;;;1.08;;
63342;SDS011;49465;57.664;39.686;2023-07-29T12:21:03;1.15;;;1.00;;
63342;SDS011;49465;57.664;39.686;2023-07-29T12:23:35;1.98;;;1.17;;
63342;SDS011;49465;57.664;39.686;2023-07-29T12:26:04;1.30;;;1.20;;
63342;SDS011;49465;57.664;39.686;2023-07-29T12:28:33;1.83;;;1.13;;
63342;SDS011;49465;57.664;39.686;2023-07-29T12:31:06;1.33;;;1.00;;
63342;SDS011;49465;57.664;39.686;2023-07-29T12:33:36;1.55;;;1.10;;
63342;SDS011;49465;57.664;39.686;2023-07-29T12:36:04;1.55;;;1.10;;
63342;SDS011;49465;57.664;39.686;2023-07-29T12:38:36;1.20;;;1.10;;
63342;SDS011;49465;57.664;39.686;2023-07-29T12:41:10;1.20;;;1.08;;
63342;SDS011;49465;57.664;39.686;2023-07-29T12:43:42;1.23;;;1.10;;
63342;SDS011;49465;57.664;39.686;2023-07-29T12:46:12;6.28;;;1.20;;
63342;SDS011;49465;57.664;39.686;2023-07-29T12:48:38;2.58;;;1.30;;
63342;SDS011;49465;57.664;39.686;2023-07-29T12:51:08;2.63;;;1.10;;
63342;SDS011;49465;57.664;39.686;2023-07-29T12:53:37;1.40;;;1.15;;
63342;SDS011;49465;57.664;39.686;2023-07-29T12:56:10;1.45;;;1.30;;
63342;SDS011;49465;57.664;39.686;2023-07-29T12:58:37;1.55;;;1.20;;
63342;SDS011;49465;57.664;39.686;2023-07-29T13:01:06;1.15;;;1.05;;
63342;SDS011;49465;57.664;39.686;2023-07-29T13:03:37;2.25;;;1.10;;
63342;SDS011;49465;57.664;39.686;2023-07-29T13:06:06;1.23;;;1.00;;
63342;SDS011;49465;57.664;39.686;2023-07-29T13:08:35;2.85;;;1.15;;
63342;SDS011;49465;57.664;39.686;2023-07-29T13:11:10;1.52;;;1.13;;
63342;SDS011;49465;57.664;39.686;2023-07-29T13:13:39;2.75;;;1.08;;
63342;SDS011;49465;57.664;39.686;2023-07-29T13:16:08;1.05;;;1.00;;
63342;SDS011;49465;57.664;39.686;2023-07-29T13:18:43;2.63;;;1.10;;
63342;SDS011;49465;57.664;39.686;2023-07-29T13:21:18;2.10;;;1.10;;
63342;SDS011;49465;57.664;39.686;2023-07-29T13:23:46;1.20;;;1.10;;
63342;SDS011;49465;57.664;39.686;2023-07-29T13:26:22;1.45;;;1.27;;
63342;SDS011;49465;57.664;39.686;2023-07-29T13:28:51;1.88;;;1.20;;
63342;SDS011;49465;57.664;39.686;2023-07-29T13:31:23;1.52;;;1.23;;
63342;SDS011;49465;57.664;39.686;2023-07-29T13:33:57;1.05;;;0.93;;
63342;SDS011;49465;57.664;39.686;2023-07-29T13:36:31;5.45;;;1.13;;
63342;SDS011;49465;57.664;39.686;2023-07-29T13:39:00;1.60;;;1.20;;
63342;SDS011;49465;57.664;39.686;2023-07-29T13:41:32;1.10;;;1.00;;
63342;SDS011;49465;57.664;39.686;2023-07-29T13:44:04;1.80;;;0.93;;
63342;SDS011;49465;57.664;39.686;2023-07-29T13:46:35;2.45;;;1.20;;
63342;SDS011;49465;57.664;39.686;2023-07-29T13:49:14;1.10;;;1.00;;
63342;SDS011;49465;57.664;39.686;2023-07-29T13:51:45;2.70;;;1.10;;
63342;SDS011;49465;57.664;39.686;2023-07-29T13:54:13;1.80;;;1.10;;
63342;SDS011;49465;57.664;39.686;2023-07-29T13:56:40;1.27;;;1.00;;
63342;SDS011;49465;57.664;39.686;2023-07-29T13:59:12;0.90;;;0.77;;
63342;SDS011;49465;57.664;39.686;2023-07-29T14:01:41;1.20;;;1.02;;
63342;SDS011;49465;57.664;39.686;2023-07-29T14:04:10;1.45;;;1.05;;
63342;SDS011;49465;57.664;39.686;2023-07-29T14:06:39;1.30;;;0.95;;
63342;SDS011;49465;57.664;39.686;2023-07-29T14:09:16;2.25;;;0.90;;
63342;SDS011;49465;57.664;39.686;2023-07-29T14:11:44;2.17;;;1.00;;
63342;SDS011;49465;57.664;39.686;2023-07-29T14:14:11;2.92;;;1.00;;
63342;SDS011;49465;57.664;39.686;2023-07-29T14:16:37;3.33;;;1.02;;
63342;SDS011;49465;57.664;39.686;2023-07-29T14:19:17;1.60;;;1.00;;
63342;SDS011;49465;57.664;39.686;2023-07-29T14:21:54;1.67;;;1.10;;
63342;SDS011;49465;57.664;39.686;2023-07-29T14:24:23;1.75;;;1.10;;
63342;SDS011;49465;57.664;39.686;2023-07-29T14:26:52;1.45;;;0.98;;
63342;SDS011;49465;57.664;39.686;2023-07-29T14:29:22;1.15;;;1.00;;
63342;SDS011;49465;57.664;39.686;2023-07-29T14:31:51;1.52;;;1.17;;
63342;SDS011;49465;57.664;39.686;2023-07-29T14:34:17;1.08;;;0.98;;
63342;SDS011;49465;57.664;39.686;2023-07-29T14:36:54;1.55;;;1.00;;
63342;SDS011;49465;57.664;39.686;2023-07-29T14:39:29;1.70;;;1.05;;
63342;SDS011;49465;57.664;39.686;2023-07-29T14:41:58;2.10;;;1.30;;
63342;SDS011;49465;57.664;39.686;2023-07-29T14:44:30;1.50;;;1.17;;
63342;SDS011;49465;57.664;39.686;2023-07-29T14:46:59;2.15;;;1.30;;
63342;SDS011;49465;57.664;39.686;2023-07-29T14:49:28;2.35;;;1.30;;
63342;SDS011;49465;57.664;39.686;2023-07-29T14:51:54;1.52;;;1.10;;
63342;SDS011;49465;57.664;39.686;2023-07-29T14:54:29;3.38;;;1.20;;
63342;SDS011;49465;57.664;39.686;2023-07-29T14:56:55;2.88;;;1.38;;
63342;SDS011;49465;57.664;39.686;2023-07-29T14:59:24;2.95;;;1.35;;
63342;SDS011;49465;57.664;39.686;2023-07-29T15:01:53;1.80;;;1.20;;
63342;SDS011;49465;57.664;39.686;2023-07-29T15:04:25;4.60;;;1.52;;
63342;SDS011;49465;57.664;39.686;2023-07-29T15:06:54;2.60;;;1.30;;
63342;SDS011;49465;57.664;39.686;2023-07-29T15:09:24;2.08;;;1.30;;
63342;SDS011;49465;57.664;39.686;2023-07-29T15:12:04;4.22;;;1.50;;
63342;SDS011;49465;57.664;39.686;2023-07-29T15:14:33;3.08;;;1.48;;
63342;SDS011;49465;57.664;39.686;2023-07-29T15:17:02;1.95;;;1.40;;
63342;SDS011;49465;57.664;39.686;2023-07-29T15:19:31;2.13;;;1.50;;